Time;durP1;ratioP1;P1;durP2;ratioP2;P2;SDS_P1;SDS_P2;PMS_P1;PMS_P2;Temp;Humidity;BMP_temperature;BMP_pressure;BME280_temperature;BME280_humidity;BME280_pressure;Samples;Min_cycle;Max_cycle;Signal;HPM_P1;HPM_P2
2023/07/31 03:01:04;;;;;;;;;;;;;;;;;;;;;
2023/07/31 03:14:35;;;;;;;10.13;9.82;;;16.50;99.90;;;;;;6197989;22;20201;-78
2023/07/31 03:17:02;;;;;;;10.23;9.93;;;16.40;99.90;;;;;;6283711;22;20259;-78
2023/07/31 03:19:33;;;;;;;10.27;9.98;;;16.40;99.90;;;;;;6283891;22;20205;-78
2023/07/31 03:22:00;;;;;;;10.32;10.02;;;16.40;99.90;;;;;;6282475;22;20197;-78
2023/07/31 03:24:27;;;;;;;10.30;10.00;;;16.40;99.90;;;;;;6283057;22;20212;-78
2023/07/31 03:26:54;;;;;;;10.10;9.80;;;16.40;99.90;;;;;;6283142;22;20198;-79
2023/07/31 03:29:21;;;;;;;10.10;9.80;;;16.40;99.90;;;;;;6282887;22;20205;-79
2023/07/31 03:31:49;;;;;;;9.90;9.60;;;16.50;99.90;;;;;;6282652;22;20210;-79
2023/07/31 03:34:16;;;;;;;10.10;9.80;;;16.50;99.90;;;;;;6284044;22;20209;-78
2023/07/31 03:36:44;;;;;;;10.50;10.20;;;16.50;99.90;;;;;;6284532;22;20249;-77
2023/07/31 03:39:11;;;;;;;10.50;10.20;;;16.60;99.90;;;;;;6283905;22;20260;-78
2023/07/31 03:41:38;;;;;;;10.40;10.10;;;16.60;99.90;;;;;;6295305;22;20229;-78
2023/07/31 03:44:05;;;;;;;10.60;10.30;;;16.50;99.90;;;;;;6295431;22;20206;-78
2023/07/31 03:46:33;;;;;;;10.75;10.45;;;16.50;99.90;;;;;;6294018;22;20243;-78
2023/07/31 03:49:00;;;;;;;10.82;10.52;;;16.50;99.90;;;;;;6292830;22;20217;-78
2023/07/31 03:51:27;;;;;;;10.73;10.43;;;16.50;99.90;;;;;;6292703;22;20197;-78
2023/07/31 03:53:56;;;;;;;10.88;10.57;;;16.50;99.90;;;;;;6292066;22;20196;-77
2023/07/31 03:56:23;;;;;;;11.20;10.90;;;16.40;99.90;;;;;;6294695;22;20200;-78
2023/07/31 03:58:50;;;;;;;11.10;10.80;;;16.40;99.90;;;;;;6292665;22;20201;-78
2023/07/31 04:01:17;;;;;;;10.82;10.52;;;16.40;99.90;;;;;;6293533;22;20268;-78
2023/07/31 04:03:44;;;;;;;10.80;10.50;;;16.40;99.90;;;;;;6293263;22;20196;-77
2023/07/31 04:06:12;;;;;;;11.05;10.75;;;16.40;99.90;;;;;;6294006;22;20197;-78
2023/07/31 04:08:39;;;;;;;10.68;10.38;;;16.40;99.90;;;;;;6293529;22;20214;-78
2023/07/31 04:11:07;;;;;;;10.80;10.50;;;16.40;99.90;;;;;;6293202;22;20194;-78
2023/07/31 04:13:34;;;;;;;10.95;10.65;;;16.40;99.90;;;;;;6293967;22;20221;-78
2023/07/31 04:16:01;;;;;;;10.90;10.60;;;16.40;99.90;;;;;;6295419;22;20253;-77
2023/07/31 04:18:30;;;;;;;10.73;10.43;;;16.30;99.90;;;;;;6293584;22;20220;-78
2023/07/31 04:20:58;;;;;;;10.60;10.30;;;16.30;99.90;;;;;;6293341;22;20232;-79
2023/07/31 04:23:25;;;;;;;10.60;10.30;;;16.30;99.90;;;;;;6291398;22;20228;-78
2023/07/31 04:25:52;;;;;;;11.02;10.73;;;16.30;99.90;;;;;;6295002;22;20229;-77
2023/07/31 04:28:20;;;;;;;10.88;10.57;;;16.30;99.90;;;;;;6293167;22;20269;-77
2023/07/31 04:30:48;;;;;;;10.75;10.45;;;16.30;99.90;;;;;;6294969;22;20194;-78
2023/07/31 04:33:15;;;;;;;10.70;10.40;;;16.40;99.90;;;;;;6295687;22;20205;-78
2023/07/31 04:35:42;;;;;;;10.57;10.27;;;16.40;99.90;;;;;;6284353;22;20293;-79
2023/07/31 04:38:09;;;;;;;10.65;10.35;;;16.30;99.90;;;;;;6283482;22;20201;-79
2023/07/31 04:40:36;;;;;;;10.82;10.52;;;16.30;99.90;;;;;;6283587;22;20241;-79
2023/07/31 04:43:03;;;;;;;10.70;10.40;;;16.30;99.90;;;;;;6283818;22;20207;-79
2023/07/31 04:45:31;;;;;;;10.75;10.45;;;16.40;99.90;;;;;;6283765;22;20221;-78
2023/07/31 04:47:58;;;;;;;10.93;10.63;;;16.30;99.90;;;;;;6286848;22;20197;-78
2023/07/31 04:50:25;;;;;;;10.95;10.65;;;16.30;99.90;;;;;;6287527;22;20194;-79
2023/07/31 04:52:52;;;;;;;10.80;10.50;;;16.40;99.90;;;;;;6285585;22;20208;-78
2023/07/31 04:55:22;;;;;;;10.90;10.60;;;16.40;99.90;;;;;;6286797;22;20218;-80
2023/07/31 04:57:49;;;;;;;11.00;10.70;;;16.40;99.90;;;;;;6288538;22;20190;-79
2023/07/31 05:00:17;;;;;;;10.68;10.38;;;16.40;99.90;;;;;;6285606;22;20296;-79
2023/07/31 05:02:45;;;;;;;10.80;10.50;;;16.40;99.90;;;;;;6286102;22;20732;-79
2023/07/31 05:05:12;;;;;;;10.88;10.57;;;16.40;99.90;;;;;;6285179;22;20216;-79
2023/07/31 05:07:39;;;;;;;11.10;10.80;;;16.40;99.90;;;;;;6285473;22;20208;-78
2023/07/31 05:10:07;;;;;;;10.70;10.40;;;16.40;99.90;;;;;;6285685;22;20196;-79
2023/07/31 05:12:34;;;;;;;10.90;10.60;;;16.40;99.90;;;;;;6286810;22;20228;-79
2023/07/31 05:15:02;;;;;;;10.80;10.50;;;16.40;99.90;;;;;;6286710;22;20225;-79
2023/07/31 05:17:29;;;;;;;10.98;10.68;;;16.40;99.90;;;;;;6285401;22;20244;-79
2023/07/31 05:19:57;;;;;;;10.65;10.35;;;16.40;99.90;;;;;;6284875;22;20302;-79
2023/07/31 05:22:24;;;;;;;10.90;10.60;;;16.40;99.90;;;;;;6286700;22;20237;-78
2023/07/31 05:24:51;;;;;;;10.88;10.57;;;16.50;99.90;;;;;;6290556;22;20216;-79
2023/07/31 05:27:19;;;;;;;11.00;10.70;;;16.50;99.90;;;;;;6289228;22;20202;-79
2023/07/31 05:29:46;;;;;;;10.70;10.40;;;16.50;99.90;;;;;;6287286;22;20198;-79
2023/07/31 05:32:13;;;;;;;10.77;10.48;;;16.60;99.90;;;;;;6284942;22;20193;-79
2023/07/31 05:34:40;;;;;;;10.75;10.45;;;16.60;99.90;;;;;;6285987;22;20217;-79
2023/07/31 05:37:10;;;;;;;10.90;10.60;;;16.70;99.90;;;;;;6285220;22;20201;-79
2023/07/31 05:39:38;;;;;;;11.10;10.80;;;16.80;99.90;;;;;;6285940;22;20204;-80
2023/07/31 05:42:06;;;;;;;10.85;10.55;;;16.90;99.90;;;;;;6285432;22;20209;-80
2023/07/31 05:44:33;;;;;;;11.15;10.85;;;17.00;99.90;;;;;;6287978;22;20204;-81
2023/07/31 05:47:00;;;;;;;10.80;10.50;;;17.00;99.90;;;;;;6284702;22;20304;-79
2023/07/31 05:49:27;;;;;;;10.63;10.32;;;17.10;99.90;;;;;;6283658;22;20201;-79
2023/07/31 05:51:54;;;;;;;10.90;10.60;;;17.20;99.90;;;;;;6283755;22;20283;-78
2023/07/31 05:54:23;;;;;;;11.05;10.75;;;17.20;99.90;;;;;;6283337;22;20197;-79
2023/07/31 05:56:50;;;;;;;10.88;10.57;;;17.40;99.90;;;;;;6283615;22;20205;-78
2023/07/31 05:59:17;;;;;;;11.02;10.73;;;17.40;99.90;;;;;;6283632;22;20205;-78
2023/07/31 06:01:44;;;;;;;10.63;10.32;;;17.50;99.90;;;;;;6282622;22;20213;-78
2023/07/31 06:04:12;;;;;;;10.80;10.50;;;17.60;99.90;;;;;;6282972;22;20281;-79
2023/07/31 06:06:39;;;;;;;10.85;10.55;;;17.70;99.90;;;;;;6283871;22;20284;-79
2023/07/31 06:09:06;;;;;;;10.80;10.50;;;17.70;99.90;;;;;;6284566;22;20216;-79
2023/07/31 06:11:34;;;;;;;10.65;10.35;;;17.80;99.90;;;;;;6283933;22;20200;-79
2023/07/31 06:14:01;;;;;;;10.80;10.50;;;17.90;99.90;;;;;;6289505;22;20232;-78
2023/07/31 06:16:28;;;;;;;10.80;10.50;;;17.90;99.90;;;;;;6284530;22;20189;-78
2023/07/31 06:18:55;;;;;;;10.40;10.10;;;18.00;99.90;;;;;;6285401;22;20297;-79
2023/07/31 06:21:22;;;;;;;10.40;10.10;;;18.10;99.90;;;;;;6285797;22;20237;-79
2023/07/31 06:23:49;;;;;;;10.70;10.40;;;18.20;99.90;;;;;;6286285;22;20225;-79
2023/07/31 06:26:16;;;;;;;10.55;10.25;;;18.30;99.90;;;;;;6286747;22;20280;-79
2023/07/31 06:28:45;;;;;;;10.30;10.00;;;18.40;99.90;;;;;;6287430;22;20200;-79
2023/07/31 06:31:12;;;;;;;10.60;10.30;;;18.40;99.90;;;;;;6287355;22;20221;-79
2023/07/31 06:33:39;;;;;;;10.60;10.30;;;18.50;99.90;;;;;;6287723;22;20206;-79
2023/07/31 06:36:07;;;;;;;10.95;10.65;;;18.60;99.90;;;;;;6287578;22;20200;-79
2023/07/31 06:38:34;;;;;;;10.63;10.32;;;18.60;99.90;;;;;;6286916;22;20193;-79
2023/07/31 06:41:01;;;;;;;10.38;10.07;;;18.60;99.90;;;;;;6287224;22;20213;-80
2023/07/31 06:43:28;;;;;;;10.55;10.25;;;18.70;99.90;;;;;;6286590;22;20190;-79
2023/07/31 06:45:57;;;;;;;10.40;10.10;;;18.70;99.90;;;;;;6286993;22;20197;-79
2023/07/31 06:48:24;;;;;;;10.13;9.82;;;18.70;99.90;;;;;;6287023;22;20210;-79
2023/07/31 06:50:51;;;;;;;10.00;9.70;;;18.80;99.90;;;;;;6286475;22;20204;-79
2023/07/31 06:53:18;;;;;;;10.90;10.60;;;18.90;99.90;;;;;;6287032;22;20193;-79
2023/07/31 06:55:45;;;;;;;11.02;10.73;;;19.10;99.90;;;;;;6286501;22;20229;-80
2023/07/31 06:58:12;;;;;;;10.98;10.68;;;19.20;99.90;;;;;;6286708;22;20277;-79
2023/07/31 07:00:39;;;;;;;11.18;10.88;;;19.20;99.90;;;;;;6286285;22;20194;-80
2023/07/31 07:03:08;;;;;;;11.10;10.80;;;19.30;99.90;;;;;;6292918;22;20190;-79
2023/07/31 07:05:35;;;;;;;10.00;9.70;;;19.30;99.90;;;;;;6284868;22;20193;-79
2023/07/31 07:08:02;;;;;;;10.18;9.88;;;19.30;99.90;;;;;;6285595;22;20206;-79
2023/07/31 07:10:29;;;;;;;9.98;9.68;;;19.40;99.90;;;;;;6286776;22;20205;-78
2023/07/31 07:12:56;;;;;;;10.10;9.80;;;19.50;99.90;;;;;;6286149;22;20196;-79
2023/07/31 07:15:23;;;;;;;10.05;9.75;;;19.50;99.90;;;;;;6286437;22;20212;-80
2023/07/31 07:17:50;;;;;;;9.80;9.50;;;19.60;99.90;;;;;;6286938;22;20210;-80
2023/07/31 07:20:19;;;;;;;9.75;9.45;;;19.60;99.90;;;;;;6286789;22;20211;-79
2023/07/31 07:22:46;;;;;;;10.30;10.00;;;19.80;99.90;;;;;;6286198;22;20224;-79
2023/07/31 07:25:13;;;;;;;10.43;10.13;;;19.90;99.90;;;;;;6286680;22;21102;-79
2023/07/31 07:27:40;;;;;;;10.20;9.90;;;19.80;99.90;;;;;;6286056;22;20215;-79
2023/07/31 07:30:08;;;;;;;10.48;10.18;;;19.80;99.90;;;;;;6287093;22;20193;-79
2023/07/31 07:32:36;;;;;;;10.48;10.18;;;19.70;99.90;;;;;;6286429;22;20224;-80
2023/07/31 07:35:03;;;;;;;10.82;10.52;;;19.50;99.90;;;;;;6287071;22;20212;-79
2023/07/31 07:37:31;;;;;;;10.70;10.40;;;19.50;99.90;;;;;;6287143;22;20211;-79
2023/07/31 07:39:58;;;;;;;10.32;10.02;;;19.40;99.90;;;;;;6287414;22;20197;-79
2023/07/31 07:42:25;;;;;;;10.30;10.00;;;19.40;99.90;;;;;;6287176;22;20209;-79
2023/07/31 07:44:52;;;;;;;10.30;10.00;;;19.40;99.90;;;;;;6287263;22;20228;-80
2023/07/31 07:47:19;;;;;;;10.57;10.27;;;19.40;99.90;;;;;;6286907;22;20245;-80
2023/07/31 07:49:46;;;;;;;10.50;10.20;;;19.30;99.90;;;;;;6287009;22;20229;-79
2023/07/31 07:52:13;;;;;;;10.60;10.30;;;19.40;99.90;;;;;;6287480;22;20661;-79
2023/07/31 07:54:42;;;;;;;10.50;10.20;;;19.40;99.90;;;;;;6294421;22;20233;-78
2023/07/31 07:57:09;;;;;;;10.55;10.25;;;19.50;99.90;;;;;;6290707;22;20197;-79
2023/07/31 07:59:36;;;;;;;10.30;10.00;;;19.60;99.90;;;;;;6288923;22;20232;-79
2023/07/31 08:02:03;;;;;;;10.40;10.10;;;19.80;99.90;;;;;;6289790;22;20263;-79
2023/07/31 08:04:30;;;;;;;10.50;10.20;;;19.80;99.90;;;;;;6287029;22;20261;-79
2023/07/31 08:06:57;;;;;;;10.30;10.00;;;19.90;99.90;;;;;;6286721;22;20204;-80
2023/07/31 08:09:24;;;;;;;10.45;10.15;;;20.00;99.90;;;;;;6287816;22;20193;-80
2023/07/31 08:11:52;;;;;;;10.57;10.27;;;19.90;99.90;;;;;;6287639;22;20202;-79
2023/07/31 08:14:19;;;;;;;10.60;10.30;;;19.80;99.90;;;;;;6288870;22;20305;-79
2023/07/31 08:16:46;;;;;;;10.57;10.27;;;19.90;99.90;;;;;;6289828;22;20197;-79
2023/07/31 08:19:13;;;;;;;10.52;10.23;;;19.90;99.90;;;;;;6291442;22;20232;-79
2023/07/31 08:21:40;;;;;;;10.50;10.20;;;20.00;99.90;;;;;;6294148;22;20308;-79
2023/07/31 08:24:08;;;;;;;10.10;9.80;;;20.10;99.90;;;;;;6293892;22;20201;-78
2023/07/31 08:26:35;;;;;;;10.23;9.93;;;20.20;99.90;;;;;;6295825;22;20201;-79
2023/07/31 08:29:03;;;;;;;10.55;10.25;;;20.30;99.90;;;;;;6295846;22;20698;-78
2023/07/31 08:31:30;;;;;;;10.68;10.38;;;20.40;99.90;;;;;;6294624;22;20216;-79
2023/07/31 08:33:57;;;;;;;10.50;10.20;;;20.60;99.90;;;;;;6295573;22;20265;-79
2023/07/31 08:36:24;;;;;;;10.68;10.38;;;20.70;99.90;;;;;;6290596;22;20209;-79
2023/07/31 08:38:51;;;;;;;10.50;10.20;;;20.70;99.90;;;;;;6288705;22;20200;-79
2023/07/31 08:41:18;;;;;;;10.02;9.73;;;20.70;99.90;;;;;;6286831;22;20214;-79
2023/07/31 08:43:47;;;;;;;9.70;9.40;;;20.70;99.90;;;;;;6287049;22;20236;-78
2023/07/31 08:46:16;;;;;;;10.00;9.70;;;20.80;99.90;;;;;;6291696;22;20225;-79
2023/07/31 08:48:45;;;;;;;9.95;9.65;;;21.00;99.90;;;;;;6285030;22;20189;-78
2023/07/31 08:51:14;;;;;;;9.80;9.50;;;21.10;99.90;;;;;;6285229;22;20190;-78
2023/07/31 08:53:41;;;;;;;10.20;9.90;;;21.20;99.90;;;;;;6288571;22;20208;-77
2023/07/31 08:56:09;;;;;;;10.00;9.70;;;21.30;99.90;;;;;;6308090;22;20278;-78
2023/07/31 08:58:37;;;;;;;10.20;9.90;;;21.40;99.90;;;;;;6308891;22;20257;-78
2023/07/31 09:01:06;;;;;;;10.82;10.52;;;21.70;99.90;;;;;;6309052;22;20229;-79
2023/07/31 09:03:36;;;;;;;10.50;10.20;;;21.70;99.90;;;;;;6307821;22;20189;-78
2023/07/31 09:06:06;;;;;;;10.60;10.30;;;21.80;99.90;;;;;;6288543;22;20206;-79
2023/07/31 09:08:33;;;;;;;10.70;10.40;;;21.70;99.90;;;;;;6289629;22;20268;-79
2023/07/31 09:11:03;;;;;;;10.55;10.25;;;21.90;99.90;;;;;;6287633;22;20224;-79
2023/07/31 09:13:32;;;;;;;10.57;10.27;;;22.00;99.90;;;;;;6286732;22;20293;-78
2023/07/31 09:15:59;;;;;;;10.32;10.02;;;22.10;99.90;;;;;;6285568;22;20209;-77
2023/07/31 09:18:26;;;;;;;10.25;9.95;;;22.20;99.90;;;;;;6284840;22;20220;-78
2023/07/31 09:21:04;;;;;;;9.52;9.23;;;22.00;99.90;;;;;;6286855;22;20201;-79
2023/07/31 09:23:43;;;;;;;9.75;9.45;;;22.00;99.90;;;;;;6286116;22;20193;-79
2023/07/31 09:26:10;;;;;;;9.95;9.65;;;22.20;99.90;;;;;;6286206;22;20189;-78
2023/07/31 09:28:38;;;;;;;9.60;9.30;;;22.30;99.90;;;;;;6286577;22;20202;-78
2023/07/31 09:31:05;;;;;;;9.40;9.10;;;22.30;99.90;;;;;;6285853;22;20256;-80
2023/07/31 09:33:32;;;;;;;9.70;9.40;;;22.10;99.90;;;;;;6286111;22;20204;-79
2023/07/31 09:36:01;;;;;;;9.90;9.60;;;22.10;99.90;;;;;;6285925;22;20257;-79
2023/07/31 09:38:30;;;;;;;10.10;9.80;;;22.20;99.90;;;;;;6291720;22;20225;-78
2023/07/31 09:40:59;;;;;;;10.50;10.20;;;22.10;99.90;;;;;;6285864;22;20248;-78
2023/07/31 09:43:27;;;;;;;10.50;10.20;;;22.20;99.90;;;;;;6284566;22;20252;-79
2023/07/31 09:45:58;;;;;;;10.55;10.25;;;22.20;99.90;;;;;;6284524;22;20240;-79
2023/07/31 09:48:27;;;;;;;10.43;10.13;;;22.20;99.90;;;;;;6285059;22;20229;-79
2023/07/31 09:50:55;;;;;;;10.30;10.00;;;22.10;99.90;;;;;;6285250;22;20194;-79
2023/07/31 09:53:31;;;;;;;10.30;10.00;;;22.00;99.90;;;;;;6284858;22;20205;-78
2023/07/31 09:56:00;;;;;;;10.52;10.23;;;21.90;99.90;;;;;;6285907;22;20216;-80
2023/07/31 09:58:30;;;;;;;10.50;10.20;;;21.80;99.90;;;;;;6286213;22;20202;-79
2023/07/31 10:00:59;;;;;;;10.65;10.35;;;21.80;99.90;;;;;;6286022;22;20201;-79
2023/07/31 10:03:32;;;;;;;10.55;10.25;;;21.80;99.90;;;;;;6285957;22;20197;-80
2023/07/31 10:06:03;;;;;;;10.50;10.20;;;22.00;99.90;;;;;;6286297;22;20304;-80
2023/07/31 10:08:36;;;;;;;10.32;10.02;;;22.10;99.90;;;;;;6286514;22;20189;-79
2023/07/31 10:11:04;;;;;;;10.00;9.70;;;22.30;99.90;;;;;;6285249;22;20190;-79
2023/07/31 10:13:32;;;;;;;10.20;9.90;;;22.30;99.90;;;;;;6284951;22;20240;-79
2023/07/31 10:16:01;;;;;;;10.10;9.80;;;22.20;99.90;;;;;;6285162;22;20653;-79
2023/07/31 10:18:29;;;;;;;10.00;9.70;;;22.00;99.90;;;;;;6285430;22;20193;-79
2023/07/31 10:20:57;;;;;;;9.90;9.60;;;21.80;99.90;;;;;;6285198;22;20190;-79
2023/07/31 10:23:25;;;;;;;10.40;10.10;;;21.70;99.90;;;;;;6284712;22;20273;-79
2023/07/31 10:25:55;;;;;;;10.05;9.75;;;21.60;99.90;;;;;;6286226;22;20232;-79
2023/07/31 10:28:22;;;;;;;10.10;9.80;;;21.70;99.90;;;;;;6287256;22;20205;-78
2023/07/31 10:30:51;;;;;;;10.20;9.90;;;21.90;99.90;;;;;;6297795;22;20206;-79
2023/07/31 10:33:20;;;;;;;10.00;9.70;;;22.30;99.90;;;;;;6289536;22;20201;-78
2023/07/31 10:35:48;;;;;;;10.00;9.70;;;22.70;99.90;;;;;;6287131;22;20198;-78
2023/07/31 10:38:15;;;;;;;10.43;10.13;;;23.10;99.90;;;;;;6285074;22;20201;-77
2023/07/31 10:40:42;;;;;;;10.70;10.40;;;23.20;99.90;;;;;;6285024;22;20198;-79
2023/07/31 10:43:26;;;;;;;10.40;10.10;;;23.00;99.90;;;;;;6283695;22;20292;-78
2023/07/31 10:45:54;;;;;;;10.30;10.00;;;22.90;99.90;;;;;;6284485;22;20759;-79
2023/07/31 10:48:22;;;;;;;10.15;9.85;;;22.80;99.90;;;;;;6285626;22;20252;-78
2023/07/31 10:50:51;;;;;;;10.30;10.00;;;22.90;99.90;;;;;;6284775;22;20194;-80
2023/07/31 10:53:25;;;;;;;10.05;9.75;;;22.70;99.90;;;;;;6284778;22;20217;-79
2023/07/31 10:55:52;;;;;;;9.90;9.60;;;22.80;99.90;;;;;;6284882;22;20189;-80
2023/07/31 10:58:22;;;;;;;9.90;9.60;;;23.10;99.90;;;;;;6285496;22;20199;-78
2023/07/31 11:00:49;;;;;;;9.90;9.60;;;23.20;99.90;;;;;;6282939;22;20193;-79
2023/07/31 11:03:20;;;;;;;9.95;9.65;;;23.10;99.90;;;;;;6283039;22;20209;-79
2023/07/31 11:05:54;;;;;;;9.57;9.27;;;23.00;99.90;;;;;;6283844;22;20197;-79
2023/07/31 11:08:24;;;;;;;9.80;9.50;;;22.90;99.90;;;;;;6285949;22;20247;-79
2023/07/31 11:11:05;;;;;;;9.98;9.68;;;22.90;99.90;;;;;;6283888;22;20205;-79
2023/07/31 11:13:41;;;;;;;9.95;9.65;;;23.00;99.90;;;;;;6285089;22;20268;-79
2023/07/31 11:16:10;;;;;;;10.80;10.50;;;23.20;99.90;;;;;;6283344;22;20248;-79
2023/07/31 11:18:39;;;;;;;10.70;10.40;;;23.00;99.90;;;;;;6285006;22;20193;-79
2023/07/31 11:21:06;;;;;;;10.60;10.30;;;22.90;99.90;;;;;;6288754;22;20197;-77
2023/07/31 11:23:33;;;;;;;10.80;10.50;;;22.80;99.90;;;;;;6289541;22;20198;-78
2023/07/31 11:26:02;;;;;;;10.27;9.98;;;22.70;99.90;;;;;;6281878;22;20219;-78
2023/07/31 11:28:35;;;;;;;10.40;10.10;;;22.50;99.90;;;;;;6283066;22;20198;-78
2023/07/31 11:31:02;;;;;;;10.43;10.13;;;22.30;99.90;;;;;;6285053;22;20190;-78
2023/07/31 11:33:29;;;;;;;10.43;10.13;;;22.20;99.90;;;;;;6284731;22;20206;-79
2023/07/31 11:35:57;;;;;;;10.50;10.20;;;22.10;99.90;;;;;;6284497;22;20257;-79
2023/07/31 11:38:25;;;;;;;10.55;10.25;;;22.10;99.90;;;;;;6285411;22;20216;-79
2023/07/31 11:40:53;;;;;;;10.40;10.10;;;22.10;99.90;;;;;;6284904;22;20196;-79
2023/07/31 11:43:21;;;;;;;10.55;10.25;;;22.10;99.90;;;;;;6286185;22;20212;-78
2023/07/31 11:45:52;;;;;;;10.40;10.10;;;22.20;99.90;;;;;;6286361;22;20197;-78
2023/07/31 11:48:26;;;;;;;10.40;10.10;;;22.30;99.90;;;;;;6287479;22;20216;-78
2023/07/31 11:50:55;;;;;;;10.40;10.10;;;22.30;99.90;;;;;;6285643;22;20267;-79
2023/07/31 11:53:30;;;;;;;9.98;9.68;;;22.40;99.90;;;;;;6284654;22;20212;-78
2023/07/31 11:55:59;;;;;;;9.63;9.32;;;22.30;99.90;;;;;;6284288;22;20220;-78
2023/07/31 11:58:27;;;;;;;9.80;9.50;;;22.30;99.90;;;;;;6284219;22;20198;-79
2023/07/31 12:00:56;;;;;;;9.50;9.20;;;22.30;99.90;;;;;;6284839;22;20193;-79
2023/07/31 12:03:23;;;;;;;9.40;9.10;;;22.40;99.90;;;;;;6284161;22;20247;-80
2023/07/31 12:05:50;;;;;;;9.43;9.13;;;22.40;99.90;;;;;;6282838;22;20293;-79
2023/07/31 12:08:17;;;;;;;9.13;8.93;;;22.50;99.90;;;;;;6284375;22;20190;-79
2023/07/31 12:10:45;;;;;;;9.20;9.00;;;22.50;99.90;;;;;;6283864;22;20196;-78
2023/07/31 12:13:21;;;;;;;9.27;9.00;;;22.50;99.90;;;;;;6285559;22;20299;-78
2023/07/31 12:15:49;;;;;;;9.27;9.00;;;22.60;99.90;;;;;;6290592;22;20297;-79
2023/07/31 12:18:21;;;;;;;9.00;8.80;;;22.60;99.90;;;;;;6285399;22;20213;-78
2023/07/31 12:20:50;;;;;;;9.35;9.05;;;22.60;99.90;;;;;;6288327;22;20228;-79
2023/07/31 12:23:25;;;;;;;8.90;8.70;;;22.60;99.90;;;;;;6287490;22;20261;-79
2023/07/31 12:26:01;;;;;;;9.15;8.93;;;22.50;99.90;;;;;;6288275;22;20239;-78
2023/07/31 12:28:29;;;;;;;9.30;9.00;;;22.50;99.90;;;;;;6286151;22;20263;-79
2023/07/31 12:30:59;;;;;;;9.00;8.80;;;22.50;99.90;;;;;;6287609;22;20892;-78
2023/07/31 12:33:33;;;;;;;8.65;8.45;;;22.50;99.90;;;;;;6287727;22;20233;-79
2023/07/31 12:36:03;;;;;;;8.85;8.65;;;22.60;99.90;;;;;;6288669;22;20218;-78
2023/07/31 12:38:30;;;;;;;9.00;8.80;;;22.70;99.90;;;;;;6292423;22;20186;-78
2023/07/31 12:40:57;;;;;;;9.15;8.88;;;22.60;99.90;;;;;;6292569;22;20237;-78
2023/07/31 12:43:25;;;;;;;9.02;8.82;;;22.60;99.90;;;;;;6294352;22;20275;-79
2023/07/31 12:45:52;;;;;;;9.57;9.27;;;22.70;99.90;;;;;;6293971;22;20268;-79
2023/07/31 12:48:19;;;;;;;9.60;9.30;;;22.70;99.90;;;;;;6294829;22;20288;-80
2023/07/31 12:50:48;;;;;;;9.40;9.10;;;22.70;99.90;;;;;;6294565;22;20193;-80
2023/07/31 12:53:15;;;;;;;9.80;9.50;;;22.80;99.90;;;;;;6295003;22;20193;-79
2023/07/31 12:55:43;;;;;;;9.57;9.27;;;22.80;99.90;;;;;;6295112;22;20213;-80
2023/07/31 12:58:10;;;;;;;9.77;9.48;;;23.00;99.90;;;;;;6296024;22;20190;-80
2023/07/31 13:00:37;;;;;;;9.30;9.00;;;23.10;99.90;;;;;;6293050;22;20204;-79
2023/07/31 13:03:05;;;;;;;9.55;9.25;;;23.10;99.90;;;;;;6292987;22;20279;-79
2023/07/31 13:05:32;;;;;;;9.77;9.48;;;23.00;99.90;;;;;;6292117;22;20200;-79
2023/07/31 13:08:00;;;;;;;9.55;9.25;;;22.90;99.90;;;;;;6298427;22;20308;-79
2023/07/31 13:10:30;;;;;;;10.00;9.70;;;22.90;99.90;;;;;;6293568;22;20204;-80
2023/07/31 13:12:57;;;;;;;9.70;9.40;;;23.00;99.90;;;;;;6294605;22;20208;-80
2023/07/31 13:15:24;;;;;;;9.90;9.60;;;23.10;99.90;;;;;;6292747;22;20264;-80
2023/07/31 13:17:51;;;;;;;10.00;9.70;;;23.40;99.90;;;;;;6292883;22;20209;-79
2023/07/31 13:20:18;;;;;;;10.43;10.13;;;23.90;99.90;;;;;;6294837;22;20198;-80
2023/07/31 13:22:46;;;;;;;10.50;10.20;;;24.10;99.90;;;;;;6293936;22;20213;-79
2023/07/31 13:25:14;;;;;;;10.52;10.23;;;24.20;99.90;;;;;;6293313;22;20257;-79
2023/07/31 13:27:41;;;;;;;10.60;10.30;;;24.50;99.90;;;;;;6292662;22;20657;-80
2023/07/31 13:30:09;;;;;;;10.48;10.18;;;25.10;99.90;;;;;;6288894;22;20247;-79
2023/07/31 13:32:38;;;;;;;10.25;9.95;;;25.30;99.90;;;;;;6290537;22;20225;-79
2023/07/31 13:35:06;;;;;;;10.50;10.20;;;25.30;99.90;;;;;;6288883;22;20213;-78
2023/07/31 13:37:33;;;;;;;10.25;9.95;;;25.40;99.90;;;;;;6289253;22;20193;-79
2023/07/31 13:40:01;;;;;;;10.70;10.40;;;25.30;99.90;;;;;;6289837;22;20197;-78
2023/07/31 13:42:29;;;;;;;9.77;9.48;;;25.10;99.90;;;;;;6286238;22;20252;-79
2023/07/31 13:44:58;;;;;;;10.60;10.30;;;24.80;99.90;;;;;;6291434;22;20200;-80
2023/07/31 13:47:25;;;;;;;10.18;9.88;;;24.70;99.90;;;;;;6296752;22;20197;-81
2023/07/31 13:49:52;;;;;;;10.20;9.90;;;24.60;99.90;;;;;;6300486;22;20220;-79
2023/07/31 13:52:19;;;;;;;10.43;10.13;;;24.50;99.90;;;;;;6307156;22;20250;-79
2023/07/31 13:54:46;;;;;;;10.15;9.85;;;24.50;99.90;;;;;;6306119;22;20225;-78
2023/07/31 13:57:13;;;;;;;10.10;9.80;;;24.50;99.90;;;;;;6308925;22;20213;-78
2023/07/31 13:59:41;;;;;;;9.95;9.65;;;25.00;99.90;;;;;;6308964;22;20181;-78
2023/07/31 14:02:09;;;;;;;9.63;9.32;;;25.70;99.90;;;;;;6310424;22;20253;-78
2023/07/31 14:04:36;;;;;;;10.10;9.80;;;26.00;99.90;;;;;;6309762;22;20182;-79
2023/07/31 14:07:04;;;;;;;9.88;9.57;;;25.80;99.90;;;;;;6311071;22;20185;-79
2023/07/31 14:09:31;;;;;;;9.80;9.50;;;25.70;99.90;;;;;;6310886;22;20194;-79
2023/07/31 14:11:58;;;;;;;9.70;9.40;;;25.40;99.90;;;;;;6308894;22;20190;-79
2023/07/31 14:14:25;;;;;;;9.70;9.40;;;25.10;99.90;;;;;;6310260;22;20181;-79
2023/07/31 14:16:53;;;;;;;9.75;9.45;;;24.80;99.90;;;;;;6309714;22;20189;-79
2023/07/31 14:19:21;;;;;;;9.75;9.45;;;24.70;99.90;;;;;;6310058;22;20196;-79
2023/07/31 14:21:48;;;;;;;9.90;9.60;;;24.70;99.90;;;;;;6308932;22;20204;-79
2023/07/31 14:24:15;;;;;;;9.60;9.30;;;24.80;99.90;;;;;;6308266;22;20295;-78
2023/07/31 14:26:42;;;;;;;9.60;9.30;;;24.70;99.90;;;;;;6296952;22;20201;-79
2023/07/31 14:29:09;;;;;;;9.60;9.30;;;24.40;99.90;;;;;;6286769;22;20276;-78
2023/07/31 14:31:37;;;;;;;9.90;9.60;;;24.40;99.90;;;;;;6287539;22;20253;-79
2023/07/31 14:34:05;;;;;;;10.00;9.70;;;24.30;99.90;;;;;;6287442;22;20284;-79
2023/07/31 14:36:32;;;;;;;10.20;9.90;;;24.10;99.90;;;;;;6287100;22;20201;-79
2023/07/31 14:38:59;;;;;;;9.50;9.20;;;24.00;99.90;;;;;;6287725;22;20240;-80
2023/07/31 14:41:26;;;;;;;9.38;9.07;;;24.10;99.90;;;;;;6287327;22;20190;-80
2023/07/31 14:43:53;;;;;;;9.52;9.23;;;24.20;99.90;;;;;;6288040;22;20205;-79
2023/07/31 14:46:21;;;;;;;9.10;8.90;;;24.10;99.90;;;;;;6287701;22;20206;-78
2023/07/31 14:48:48;;;;;;;9.35;9.05;;;24.10;99.90;;;;;;6287306;22;20186;-80
2023/07/31 14:51:17;;;;;;;9.20;9.00;;;24.00;99.90;;;;;;6288352;22;20276;-79
2023/07/31 14:53:44;;;;;;;9.10;8.90;;;23.80;99.90;;;;;;6294605;22;20189;-79
2023/07/31 14:56:12;;;;;;;8.82;8.63;;;23.60;99.90;;;;;;6288390;22;20288;-79
2023/07/31 14:58:39;;;;;;;8.80;8.60;;;23.50;99.90;;;;;;6287736;22;20243;-79
2023/07/31 15:01:06;;;;;;;9.20;9.00;;;23.30;99.90;;;;;;6287062;22;20196;-79
2023/07/31 15:03:33;;;;;;;9.50;9.20;;;23.20;99.90;;;;;;6291580;22;20241;-80
2023/07/31 15:06:00;;;;;;;9.45;9.15;;;23.10;99.90;;;;;;6292375;22;20266;-80
2023/07/31 15:08:28;;;;;;;9.70;9.40;;;23.10;99.90;;;;;;6293766;22;20252;-78
2023/07/31 15:10:57;;;;;;;9.20;9.00;;;23.10;99.90;;;;;;6288487;22;20193;-79
2023/07/31 15:13:24;;;;;;;9.02;8.82;;;23.00;99.90;;;;;;6287736;22;20202;-78
2023/07/31 15:15:51;;;;;;;9.05;8.85;;;22.90;99.90;;;;;;6287422;22;20220;-80
2023/07/31 15:18:19;;;;;;;9.10;8.90;;;23.00;99.90;;;;;;6288613;22;20202;-80
2023/07/31 15:20:46;;;;;;;8.90;8.70;;;22.90;99.90;;;;;;6288263;22;20220;-79
2023/07/31 15:23:13;;;;;;;9.25;9.05;;;22.90;99.90;;;;;;6288022;22;20193;-79
2023/07/31 15:25:42;;;;;;;9.02;8.82;;;22.90;99.90;;;;;;6288556;22;20280;-80
2023/07/31 15:28:09;;;;;;;9.00;8.80;;;22.90;99.90;;;;;;6288762;22;20204;-80
2023/07/31 15:30:37;;;;;;;8.60;8.40;;;22.90;99.90;;;;;;6288208;22;20320;-79
2023/07/31 15:33:04;;;;;;;8.80;8.60;;;22.90;99.90;;;;;;6287596;22;20202;-80
2023/07/31 15:35:31;;;;;;;8.82;8.63;;;23.00;99.90;;;;;;6288320;22;20229;-79
2023/07/31 15:37:58;;;;;;;9.10;8.90;;;23.00;99.90;;;;;;6287886;22;20220;-79
2023/07/31 15:40:25;;;;;;;8.77;8.57;;;23.10;99.90;;;;;;6287016;22;20197;-79
2023/07/31 15:42:54;;;;;;;8.90;8.70;;;23.00;99.90;;;;;;6286974;22;20192;-80
2023/07/31 15:45:22;;;;;;;8.77;8.57;;;23.00;99.90;;;;;;6288870;22;20205;-80
2023/07/31 15:47:49;;;;;;;9.05;8.85;;;23.00;99.90;;;;;;6297631;22;20269;-79
2023/07/31 15:50:16;;;;;;;9.50;9.20;;;22.90;99.90;;;;;;6302971;22;20198;-80